createdAt,value
2023-04-07T00:00:21.534Z,64.66
2023-04-07T00:03:32.580Z,64.70
2023-04-07T00:06:43.674Z,65.06
2023-04-07T00:09:54.526Z,65.03
2023-04-07T00:13:06.038Z,64.95
2023-04-07T00:16:16.866Z,64.75
2023-04-07T00:19:28.346Z,64.89
2023-04-07T00:22:41.197Z,64.97
2023-04-07T00:25:52.216Z,65.21
2023-04-07T00:29:02.217Z,65.40
2023-04-07T00:32:13.411Z,65.42
2023-04-07T00:35:24.670Z,65.63
2023-04-07T00:38:35.718Z,65.67
2023-04-07T00:41:46.514Z,65.58
2023-04-07T00:44:57.255Z,65.80
2023-04-07T00:48:08.141Z,66.09
2023-04-07T00:51:20.019Z,66.17
2023-04-07T00:54:25.032Z,66.20
2023-04-07T00:57:36.098Z,66.38
2023-04-07T01:00:52.989Z,66.39
2023-04-07T01:04:07.018Z,66.50
2023-04-07T01:07:16.505Z,66.69
2023-04-07T01:10:31.699Z,66.58
2023-04-07T01:13:44.799Z,66.80
2023-04-07T01:16:59.305Z,67.20
2023-04-07T01:20:12.302Z,67.33
2023-04-07T01:23:19.234Z,67.34
2023-04-07T01:26:27.146Z,67.49
2023-04-07T01:29:40.657Z,67.62
2023-04-07T01:32:53.479Z,67.84
2023-04-07T01:36:04.730Z,67.82
2023-04-07T01:39:16.164Z,67.89
2023-04-07T01:42:30.706Z,68.07
2023-04-07T01:45:42.990Z,68.21
2023-04-07T01:48:57.124Z,68.40
2023-04-07T01:52:09.130Z,68.23
2023-04-07T01:55:20.116Z,68.56
2023-04-07T01:58:32.454Z,68.63
2023-04-07T02:01:43.644Z,68.72
2023-04-07T02:04:56.612Z,68.85
2023-04-07T02:08:05.311Z,68.97
2023-04-07T02:11:18.567Z,69.15
2023-04-07T02:14:29.772Z,68.98
2023-04-07T02:17:47.092Z,69.16
2023-04-07T02:20:59.162Z,69.28
2023-04-07T02:24:12.842Z,69.59
2023-04-07T02:27:23.699Z,69.88
2023-04-07T02:30:35.086Z,69.89
2023-04-07T02:33:45.939Z,69.80
2023-04-07T02:36:57.266Z,69.67
2023-04-07T02:40:09.338Z,69.72
2023-04-07T02:43:21.329Z,69.65
2023-04-07T02:46:32.294Z,69.56
2023-04-07T02:49:43.598Z,69.62
2023-04-07T02:52:57.051Z,69.65
2023-04-07T02:56:08.891Z,69.40
2023-04-07T02:59:19.803Z,69.59
2023-04-07T03:02:30.855Z,69.84
2023-04-07T03:05:44.313Z,70.08
2023-04-07T03:08:55.920Z,70.18
2023-04-07T03:12:06.879Z,70.46
2023-04-07T03:15:19.011Z,70.59
2023-04-07T03:18:30.455Z,70.62
2023-04-07T03:21:41.750Z,70.77
2023-04-07T03:24:52.906Z,71.00
2023-04-07T03:28:03.698Z,71.11
2023-04-07T03:31:14.791Z,71.15
2023-04-07T03:34:26.265Z,71.29
2023-04-07T03:37:37.322Z,71.35
2023-04-07T03:40:48.600Z,71.33
2023-04-07T03:43:59.708Z,71.64
2023-04-07T03:47:10.591Z,71.49
2023-04-07T03:50:21.664Z,71.41
2023-04-07T03:53:45.236Z,71.58
2023-04-07T03:57:02.522Z,71.74
2023-04-07T04:00:14.858Z,72.10
2023-04-07T04:03:28.749Z,71.99
2023-04-07T04:06:39.611Z,71.91
2023-04-07T04:09:50.305Z,72.00
2023-04-07T04:13:03.854Z,72.05
2023-04-07T04:16:15.319Z,72.26
2023-04-07T04:19:26.421Z,72.64
2023-04-07T04:22:37.284Z,72.95
2023-04-07T04:25:48.174Z,73.04
2023-04-07T04:29:15.887Z,72.97
2023-04-07T04:32:26.746Z,73.13
2023-04-07T04:35:38.061Z,73.35
2023-04-07T04:38:52.245Z,73.41
2023-04-07T04:42:04.039Z,73.25
2023-04-07T04:45:14.867Z,73.43
2023-04-07T04:48:25.674Z,73.51
2023-04-07T04:51:36.431Z,73.52
2023-04-07T04:54:47.196Z,73.69
2023-04-07T04:57:58.432Z,73.80
2023-04-07T05:01:09.621Z,73.75
2023-04-07T05:04:21.671Z,73.70
2023-04-07T05:07:33.231Z,73.50
2023-04-07T05:10:44.878Z,73.47
2023-04-07T05:13:52.460Z,73.36
2023-04-07T05:17:03.835Z,73.18
2023-04-07T05:20:14.925Z,73.18
2023-04-07T05:23:25.712Z,73.20
2023-04-07T05:26:36.683Z,73.19
2023-04-07T05:29:47.948Z,73.30
2023-04-07T05:32:59.153Z,73.52
2023-04-07T05:36:10.957Z,73.36
2023-04-07T05:39:21.813Z,73.35
2023-04-07T05:42:32.600Z,73.61
2023-04-07T05:45:43.544Z,73.81
2023-04-07T05:48:54.781Z,73.83
2023-04-07T05:52:06.575Z,74.08
2023-04-07T05:55:17.940Z,74.14
2023-04-07T05:58:29.375Z,74.25
2023-04-07T06:01:40.384Z,74.32
2023-04-07T06:04:51.811Z,74.25
2023-04-07T06:08:02.941Z,74.30
2023-04-07T06:11:13.986Z,74.16
2023-04-07T06:14:24.678Z,74.35
2023-04-07T06:17:35.531Z,74.40
2023-04-07T06:20:46.344Z,74.35
2023-04-07T06:23:57.568Z,74.42
2023-04-07T06:27:09.021Z,74.50
2023-04-07T06:30:20.312Z,74.49
2023-04-07T06:33:31.772Z,74.54
2023-04-07T06:36:42.731Z,74.57
2023-04-07T06:39:56.045Z,74.54
2023-04-07T06:43:09.883Z,74.52
2023-04-07T06:46:20.824Z,74.55
2023-04-07T06:49:31.776Z,74.53
2023-04-07T06:52:43.325Z,74.61
2023-04-07T06:56:03.867Z,74.56
2023-04-07T06:58:57.485Z,74.53
2023-04-07T07:02:09.408Z,74.59
2023-04-07T07:05:21.424Z,74.51
2023-04-07T07:08:32.277Z,74.35
2023-04-07T07:11:40.526Z,74.28
2023-04-07T07:14:51.384Z,74.42
2023-04-07T07:18:02.231Z,74.27
2023-04-07T07:20:57.781Z,74.55
2023-04-07T07:23:51.644Z,74.35
2023-04-07T07:26:52.428Z,73.24
2023-04-07T07:30:03.170Z,71.29
2023-04-07T07:33:13.070Z,69.71
2023-04-07T07:36:13.992Z,68.52
2023-04-07T07:39:05.696Z,66.85
2023-04-07T07:41:56.646Z,64.88
2023-04-07T07:44:47.213Z,62.85
2023-04-07T07:47:38.114Z,61.48
2023-04-07T07:50:28.679Z,60.29
2023-04-07T07:53:19.342Z,58.58
2023-04-07T07:56:09.869Z,56.82
2023-04-07T07:59:00.389Z,55.33
2023-04-07T08:01:51.348Z,54.14
2023-04-07T08:04:41.892Z,52.54
2023-04-07T08:07:32.440Z,51.89
2023-04-07T08:10:25.127Z,50.60
2023-04-07T08:13:16.586Z,49.06
2023-04-07T08:16:07.787Z,48.59
2023-04-07T08:18:58.365Z,47.02
2023-04-07T08:21:48.901Z,46.77
2023-04-07T08:24:39.420Z,46.33
2023-04-07T08:27:30.437Z,45.95
2023-04-07T08:30:22.560Z,45.40
2023-04-07T08:33:12.609Z,45.17
2023-04-07T08:36:03.340Z,44.71
2023-04-07T08:38:53.828Z,43.70
2023-04-07T08:41:46.207Z,42.79
2023-04-07T08:44:38.304Z,42.32
2023-04-07T08:47:29.652Z,40.63
2023-04-07T08:50:20.538Z,40.26
2023-04-07T08:53:13.101Z,39.46
2023-04-07T08:56:06.617Z,39.41
2023-04-07T08:58:56.933Z,38.75
2023-04-07T09:01:47.936Z,37.52
2023-04-07T09:04:39.897Z,35.94
2023-04-07T09:07:30.185Z,34.98
2023-04-07T09:10:21.045Z,35.06
2023-04-07T09:13:14.510Z,34.71
2023-04-07T09:16:05.319Z,34.46
2023-04-07T09:18:55.935Z,34.07
2023-04-07T09:21:51.879Z,34.09
2023-04-07T09:24:42.800Z,34.55
2023-04-07T09:27:34.500Z,34.18
2023-04-07T09:30:25.720Z,34.04
2023-04-07T09:33:18.188Z,33.90
2023-04-07T09:36:09.103Z,33.96
2023-04-07T09:39:09.365Z,33.66
2023-04-07T09:42:08.143Z,34.14
2023-04-07T09:45:00.417Z,34.88
2023-04-07T09:47:52.041Z,35.56
2023-04-07T09:50:46.025Z,35.18
2023-04-07T09:53:44.468Z,34.41
2023-04-07T09:56:35.325Z,34.01
2023-04-07T09:59:26.502Z,33.43
2023-04-07T10:02:17.564Z,32.23
2023-04-07T10:05:09.318Z,32.18
2023-04-07T10:08:05.043Z,33.11
2023-04-07T10:10:55.855Z,33.57
2023-04-07T10:13:47.220Z,32.88
2023-04-07T10:16:45.680Z,31.42
2023-04-07T10:19:39.612Z,30.78
2023-04-07T10:22:31.370Z,29.94
2023-04-07T10:25:23.853Z,29.10
2023-04-07T10:28:15.793Z,27.49
2023-04-07T10:31:43.536Z,27.96
2023-04-07T10:34:53.672Z,27.63
2023-04-07T10:38:04.170Z,27.47
2023-04-07T10:40:54.374Z,25.76
2023-04-07T10:43:45.351Z,25.64
2023-04-07T10:46:55.712Z,25.09
2023-04-07T10:50:08.902Z,24.61
2023-04-07T10:53:09.053Z,24.10
2023-04-07T10:55:59.473Z,24.32
2023-04-07T10:59:13.358Z,23.94
2023-04-07T11:02:17.881Z,23.80
2023-04-07T11:05:09.040Z,23.70
2023-04-07T11:08:02.778Z,22.69
2023-04-07T11:10:53.450Z,22.80
2023-04-07T11:13:44.263Z,22.41
2023-04-07T11:16:42.644Z,22.40
2023-04-07T11:19:56.090Z,22.32
2023-04-07T11:23:14.520Z,21.75
2023-04-07T11:26:16.316Z,22.09
2023-04-07T11:29:10.633Z,22.00
2023-04-07T11:32:01.527Z,22.63
2023-04-07T11:34:52.571Z,24.49
2023-04-07T11:37:43.165Z,26.26
2023-04-07T11:40:38.245Z,28.03
2023-04-07T11:43:29.348Z,28.91
2023-04-07T11:46:19.976Z,30.32
2023-04-07T11:49:17.426Z,31.23
2023-04-07T11:52:20.675Z,29.87
2023-04-07T11:55:22.075Z,30.77
2023-04-07T11:58:13.143Z,32.62
2023-04-07T12:01:07.015Z,32.16
2023-04-07T12:03:59.633Z,31.39
2023-04-07T12:06:50.456Z,30.10
2023-04-07T12:09:43.738Z,30.31
2023-04-07T12:12:34.288Z,31.83
2023-04-07T12:15:25.193Z,33.48
2023-04-07T12:18:19.329Z,34.07
2023-04-07T12:21:09.947Z,34.64
2023-04-07T12:24:00.684Z,35.33
2023-04-07T12:26:51.578Z,34.77
2023-04-07T12:29:42.195Z,33.49
2023-04-07T12:32:34.255Z,32.98
2023-04-07T12:35:24.930Z,31.10
2023-04-07T12:38:15.774Z,30.60
2023-04-07T12:41:06.559Z,31.82
2023-04-07T12:43:57.113Z,31.83
2023-04-07T12:46:47.938Z,30.83
2023-04-07T12:49:38.360Z,29.20
2023-04-07T12:52:28.902Z,27.81
2023-04-07T12:55:19.462Z,28.25
2023-04-07T12:58:10.407Z,29.76
2023-04-07T13:01:01.565Z,31.10
2023-04-07T13:03:52.853Z,32.70
2023-04-07T13:06:43.752Z,34.19
2023-04-07T13:09:34.440Z,35.78
2023-04-07T13:12:25.047Z,36.76
2023-04-07T13:15:16.119Z,37.12
2023-04-07T13:18:06.978Z,37.93
2023-04-07T13:21:33.741Z,38.74
2023-04-07T13:24:08.378Z,39.04
2023-04-07T13:26:59.766Z,39.00
2023-04-07T13:29:50.364Z,38.67
2023-04-07T13:32:41.074Z,37.83
2023-04-07T13:35:36.046Z,36.58
2023-04-07T13:38:26.887Z,36.06
2023-04-07T13:41:17.491Z,36.31
2023-04-07T13:44:08.263Z,36.79
2023-04-07T13:46:59.044Z,36.84
2023-04-07T13:49:50.899Z,36.93
2023-04-07T13:52:41.438Z,37.31
2023-04-07T13:55:36.973Z,37.29
2023-04-07T13:58:32.088Z,37.61
2023-04-07T14:01:27.934Z,37.32
2023-04-07T14:04:20.153Z,36.94
2023-04-07T14:07:11.008Z,34.66
2023-04-07T14:10:01.568Z,33.93
2023-04-07T14:12:52.619Z,33.29
2023-04-07T14:15:42.939Z,33.40
2023-04-07T14:18:33.411Z,33.21
2023-04-07T14:21:24.615Z,33.07
2023-04-07T14:24:15.133Z,33.39
2023-04-07T14:27:05.981Z,33.84
2023-04-07T14:29:58.116Z,33.93
2023-04-07T14:32:48.792Z,33.80
2023-04-07T14:35:39.881Z,33.87
2023-04-07T14:38:30.946Z,33.77
2023-04-07T14:41:21.643Z,33.63
2023-04-07T14:44:12.214Z,33.91
2023-04-07T14:47:02.755Z,34.08
2023-04-07T14:49:54.489Z,34.29
2023-04-07T14:52:44.858Z,34.22
2023-04-07T14:55:36.350Z,34.20
2023-04-07T14:58:26.909Z,34.68
2023-04-07T15:01:23.889Z,34.87
2023-04-07T15:04:14.834Z,35.15
2023-04-07T15:07:05.440Z,35.33
2023-04-07T15:09:57.019Z,35.72
2023-04-07T15:12:48.918Z,36.05
2023-04-07T15:15:39.812Z,36.26
2023-04-07T15:18:30.779Z,36.75
2023-04-07T15:21:21.704Z,36.47
2023-04-07T15:24:13.328Z,36.51
2023-04-07T15:27:05.546Z,36.83
2023-04-07T15:29:56.226Z,37.20
2023-04-07T15:33:00.648Z,37.05
2023-04-07T15:35:51.003Z,36.84
2023-04-07T15:38:42.415Z,36.50
2023-04-07T15:41:33.353Z,36.29
2023-04-07T15:44:24.041Z,36.68
2023-04-07T15:47:14.736Z,36.95
2023-04-07T15:50:06.157Z,37.40
2023-04-07T15:52:57.269Z,37.89
2023-04-07T15:55:47.958Z,37.86
2023-04-07T15:58:38.859Z,37.75
2023-04-07T16:01:30.186Z,37.92
2023-04-07T16:04:23.462Z,37.79
2023-04-07T16:07:14.292Z,37.82
2023-04-07T16:10:08.351Z,38.05
2023-04-07T16:13:00.884Z,37.94
2023-04-07T16:15:54.598Z,37.92
2023-04-07T16:18:45.204Z,38.09
2023-04-07T16:21:35.794Z,38.42
2023-04-07T16:24:26.379Z,38.31
2023-04-07T16:27:17.088Z,38.31
2023-04-07T16:30:08.620Z,38.08
2023-04-07T16:33:00.378Z,38.05
2023-04-07T16:35:51.554Z,38.08
2023-04-07T16:38:42.309Z,37.88
2023-04-07T16:44:37.262Z,38.35
2023-04-07T16:47:28.316Z,38.28
2023-04-07T16:50:18.753Z,38.15
2023-04-07T16:53:11.436Z,38.50
2023-04-07T16:56:02.438Z,38.52
2023-04-07T16:58:52.980Z,38.44
2023-04-07T17:01:48.271Z,38.59
2023-04-07T17:04:39.039Z,38.73
2023-04-07T17:07:29.735Z,38.69
2023-04-07T17:10:20.359Z,38.69
2023-04-07T17:13:14.150Z,38.54
2023-04-07T17:16:08.094Z,38.20
2023-04-07T17:18:58.575Z,38.22
2023-04-07T17:21:49.412Z,37.93
2023-04-07T17:24:39.964Z,38.07
2023-04-07T17:27:30.602Z,37.89
2023-04-07T17:30:21.572Z,37.86
2023-04-07T17:33:16.212Z,37.91
2023-04-07T17:36:08.999Z,37.87
2023-04-07T17:39:03.146Z,38.01
2023-04-07T17:41:58.364Z,38.22
2023-04-07T17:44:52.589Z,38.60
2023-04-07T17:47:43.355Z,38.89
2023-04-07T17:50:38.280Z,39.20
2023-04-07T17:53:28.900Z,39.38
2023-04-07T17:56:25.792Z,39.79
2023-04-07T17:59:19.446Z,40.03
2023-04-07T18:02:14.282Z,40.44
2023-04-07T18:05:09.234Z,40.77
2023-04-07T18:08:12.213Z,41.18
2023-04-07T18:11:23.024Z,41.30
2023-04-07T18:14:33.971Z,41.57
2023-04-07T18:17:35.584Z,41.61
2023-04-07T18:20:26.189Z,41.87
2023-04-07T18:23:16.930Z,41.98
2023-04-07T18:26:17.357Z,42.33
2023-04-07T18:29:16.811Z,42.53
2023-04-07T18:32:09.890Z,42.68
2023-04-07T18:35:20.850Z,42.98
2023-04-07T18:38:30.150Z,43.34
2023-04-07T18:41:44.546Z,43.73
2023-04-07T18:44:35.264Z,43.90
2023-04-07T18:47:35.302Z,43.95
2023-04-07T18:50:49.981Z,44.10
2023-04-07T18:53:40.550Z,44.42
2023-04-07T18:56:44.266Z,44.51
2023-04-07T18:59:46.197Z,44.71
2023-04-07T19:02:44.636Z,44.87
2023-04-07T19:05:47.834Z,45.31
2023-04-07T19:08:50.072Z,45.62
2023-04-07T19:11:43.744Z,45.78
2023-04-07T19:14:39.053Z,46.06
2023-04-07T19:17:30.474Z,46.26
2023-04-07T19:20:21.205Z,46.44
2023-04-07T19:23:11.837Z,46.73
2023-04-07T19:26:22.668Z,47.19
2023-04-07T19:29:13.302Z,47.69
2023-04-07T19:32:24.332Z,48.06
2023-04-07T19:35:35.898Z,48.35
2023-04-07T19:38:37.998Z,48.74
2023-04-07T19:41:48.762Z,49.16
2023-04-07T19:44:48.576Z,49.46
2023-04-07T19:47:43.573Z,49.90
2023-04-07T19:50:43.133Z,50.11
2023-04-07T19:53:42.715Z,50.35
2023-04-07T19:56:42.394Z,50.50
2023-04-07T19:59:41.971Z,50.71
2023-04-07T20:02:44.171Z,51.01
2023-04-07T20:05:47.913Z,51.28
2023-04-07T20:08:43.762Z,51.57
2023-04-07T20:11:53.669Z,52.02
2023-04-07T20:15:07.195Z,52.27
2023-04-07T20:18:11.269Z,52.56
2023-04-07T20:21:07.596Z,52.84
2023-04-07T20:24:19.158Z,53.01
2023-04-07T20:27:22.941Z,53.21
2023-04-07T20:30:17.375Z,53.29
2023-04-07T20:33:28.682Z,53.44
2023-04-07T20:36:39.945Z,53.68
2023-04-07T20:39:55.717Z,54.25
2023-04-07T20:43:06.919Z,54.82
2023-04-07T20:46:00.536Z,55.42
2023-04-07T20:49:11.806Z,55.84
2023-04-07T20:52:08.078Z,56.16
2023-04-07T20:55:19.295Z,56.36
2023-04-07T20:58:21.713Z,56.56
2023-04-07T21:01:32.630Z,56.42
2023-04-07T21:04:38.860Z,56.43
2023-04-07T21:07:49.815Z,56.73
2023-04-07T21:11:00.916Z,57.03
2023-04-07T21:14:04.806Z,57.01
2023-04-07T21:17:08.015Z,57.06
2023-04-07T21:20:19.169Z,57.28
2023-04-07T21:23:23.973Z,57.60
2023-04-07T21:26:34.736Z,57.79
2023-04-07T21:29:41.235Z,57.81
2023-04-07T21:32:48.227Z,57.93
2023-04-07T21:35:49.828Z,58.15
2023-04-07T21:38:54.035Z,58.31
2023-04-07T21:42:04.906Z,58.77
2023-04-07T21:45:16.285Z,59.01
2023-04-07T21:48:27.132Z,59.60
2023-04-07T21:51:38.036Z,60.08
2023-04-07T21:54:49.324Z,60.48
2023-04-07T21:58:00.837Z,60.63
2023-04-07T22:01:11.579Z,61.05
2023-04-07T22:04:23.231Z,61.52
2023-04-07T22:07:36.612Z,62.27
2023-04-07T22:10:43.522Z,62.95
2023-04-07T22:13:54.356Z,63.51
2023-04-07T22:17:05.500Z,63.83
2023-04-07T22:20:16.300Z,64.32
2023-04-07T22:23:28.006Z,64.83
2023-04-07T22:26:21.859Z,65.19
2023-04-07T22:29:23.591Z,65.54
2023-04-07T22:32:33.113Z,66.04
2023-04-07T22:35:44.087Z,66.42
2023-04-07T22:38:54.839Z,66.60
2023-04-07T22:42:05.937Z,66.94
2023-04-07T22:45:16.864Z,67.34
2023-04-07T22:48:20.144Z,67.60
2023-04-07T22:51:13.576Z,67.76
2023-04-07T22:54:25.094Z,67.91
2023-04-07T22:57:29.205Z,68.19
2023-04-07T23:00:28.702Z,68.45
2023-04-07T23:03:39.570Z,68.76
2023-04-07T23:06:50.974Z,69.06
2023-04-07T23:09:56.332Z,69.38
2023-04-07T23:13:01.518Z,69.79
2023-04-07T23:16:14.791Z,70.02
2023-04-07T23:19:19.761Z,70.45
2023-04-07T23:22:31.019Z,70.65
2023-04-07T23:25:42.401Z,70.92
2023-04-07T23:28:53.162Z,71.17
2023-04-07T23:32:02.602Z,71.51
2023-04-07T23:34:56.112Z,71.57
2023-04-07T23:37:50.142Z,71.85
2023-04-07T23:41:01.348Z,72.11
2023-04-07T23:44:12.446Z,72.30
2023-04-07T23:47:19.937Z,72.46
2023-04-07T23:50:33.148Z,72.77
2023-04-07T23:53:44.707Z,72.87
2023-04-07T23:56:58.760Z,72.98
